Caner Karaloglu — TCUL5 — position and weather

sailwx.info

Track history (hours):
 
Tides and Currents Weather Stations Pressure Air Temp Water Temp Dewpoint Dewpoint Depression Visibility Wind Speed Wind Dir Waves Ship Positions

Caner Karaloglu

Last reported at 2014-Aug-21 22:09 UTC. Time now 2014-Aug-23 07:31 UTC.
Position N 37°56' E 024°36'.

Length 70 m; draft 3.5 m.

Type: Tanker. MMSI: 271043140.

Date/timePositionNaut miles runAvg speedWind from/ knotsBaromVisibWave heightAir tempDewpointWater temp
2014-Aug-21 22:09N 37°56' E 024°36'9 9.4
2014-Aug-21 21:14N 37°50' E 024°28'7 9.6
2014-Aug-21 20:28N 37°45' E 024°21'18 9.1
2014-Aug-21 18:31N 37°37' E 024°01'9 9.4
2014-Aug-21 17:33N 37°38' E 023°50'8 7.9
2014-Aug-21 16:33N 37°42' E 023°42'9 8.5
2014-Aug-21 15:33N 37°49' E 023°36'9 8.9
2014-Aug-21 14:33N 37°51' E 023°25'9 8.9
2014-Aug-21 13:33N 37°52' E 023°13'9 8.8
2014-Aug-21 12:33N 37°54' E 023°03'  
2014-Aug-15 15:03N 37°55' E 023°01'3 1.9
2014-Aug-15 13:23N 37°54' E 023°05'7 8.2
2014-Aug-15 12:33N 37°53' E 023°13'8 8.4
2014-Aug-15 11:33N 37°51' E 023°24'8 8.4
2014-Aug-15 10:33N 37°50' E 023°34'8 7.6
2014-Aug-15 09:33N 37°46' E 023°42'8 8.1
2014-Aug-15 08:33N 37°40' E 023°49'24 7.5
2014-Aug-15 05:24N 37°46' E 024°18'126 8.5
2014-Aug-14 14:30N 39°32' E 025°46'164 7.1
2014-Aug-13 15:23N 40°56' E 028°51'26 2.1
2014-Aug-13 03:10N 41°20' E 029°04'198 8.2
2014-Aug-12 03:08N 44°31' E 030°14'13 8.2
2014-Aug-12 01:33N 44°44' E 030°19'25 8.5
2014-Aug-11 22:33N 45°08' E 030°29'  
Track history (hours):
 
Tides and Currents Weather Stations Pressure Air Temp Water Temp Dewpoint Dewpoint Depression Visibility Wind Speed Wind Dir Waves Ship Positions

Caner Karaloglu

Last reported at 2014-Aug-21 22:09 UTC. Time now 2014-Aug-23 07:31 UTC.
Position N 37°56' E 024°36'.

Length 70 m; draft 3.5 m.

Type: Tanker. MMSI: 271043140.

Date/timePositionNaut miles runAvg speedWind from/ knotsBaromVisibWave heightAir tempDewpointWater temp
2014-Aug-21 22:09N 37°56' E 024°36'9 9.4
2014-Aug-21 21:14N 37°50' E 024°28'7 9.6
2014-Aug-21 20:28N 37°45' E 024°21'18 9.1
2014-Aug-21 18:31N 37°37' E 024°01'9 9.4
2014-Aug-21 17:33N 37°38' E 023°50'8 7.9
2014-Aug-21 16:33N 37°42' E 023°42'9 8.5
2014-Aug-21 15:33N 37°49' E 023°36'9 8.9
2014-Aug-21 14:33N 37°51' E 023°25'9 8.9
2014-Aug-21 13:33N 37°52' E 023°13'9 8.8
2014-Aug-21 12:33N 37°54' E 023°03'  
2014-Aug-15 15:03N 37°55' E 023°01'3 1.9
2014-Aug-15 13:23N 37°54' E 023°05'7 8.2
2014-Aug-15 12:33N 37°53' E 023°13'8 8.4
2014-Aug-15 11:33N 37°51' E 023°24'8 8.4
2014-Aug-15 10:33N 37°50' E 023°34'8 7.6
2014-Aug-15 09:33N 37°46' E 023°42'8 8.1
2014-Aug-15 08:33N 37°40' E 023°49'24 7.5
2014-Aug-15 05:24N 37°46' E 024°18'126 8.5
2014-Aug-14 14:30N 39°32' E 025°46'164 7.1
2014-Aug-13 15:23N 40°56' E 028°51'26 2.1
2014-Aug-13 03:10N 41°20' E 029°04'198 8.2
2014-Aug-12 03:08N 44°31' E 030°14'13 8.2
2014-Aug-12 01:33N 44°44' E 030°19'25 8.5
2014-Aug-11 22:33N 45°08' E 030°29'  

Dump ship's entire track history